Statsraad Lehmkuhl — LDRG — position and weather

sailwx.info

Track history (hours):
 
Tides and Currents Weather Stations Pressure Air Temp Water Temp Dewpoint Dewpoint Depression Visibility Wind Speed Wind Dir Waves Ship Positions

Statsraad Lehmkuhl (Norway)

Ship's website: http://www.lehmkuhl.no/eng/index.cfm

Last reported at 2018-Apr-19 14:23 UTC. Time now 2018-Apr-23 00:19 UTC.
Position N 60°07' E 004°31'.

Length 85 m; draft 5.2 m.

Type: Sailing vessel. MMSI: 258113000.

Date/timePositionNaut miles runAvg speedWind from/ knotsBaromVisibWave heightAir tempDewpointWater temp
2018-Apr-19 14:23N 60°07' E 004°31'2 4.2
2018-Apr-19 13:59N 60°07' E 004°34'2 3.9
2018-Apr-19 13:29N 60°07' E 004°38'2 4.6
2018-Apr-19 13:00N 60°08' E 004°42'4 7.9
2018-Apr-19 12:30N 60°09' E 004°50'4 7.5
2018-Apr-19 12:00N 60°09' E 004°58'4 8.2
2018-Apr-19 11:30N 60°10' E 005°06'4 7.5
2018-Apr-19 11:00N 60°13' E 005°10'3 5.6
2018-Apr-19 10:30N 60°15' E 005°09'4 7.2
2018-Apr-19 10:00N 60°19' E 005°09'3 6.6
2018-Apr-19 09:30N 60°22' E 005°10'4 7.5
2018-Apr-19 09:00N 60°24' E 005°16'2 3.4
2018-Apr-19 08:30N 60°24' E 005°19'0 0.0
2018-Apr-19 08:00N 60°24' E 005°19'0 0.0
2018-Apr-19 07:30N 60°24' E 005°19'0 0.0
2018-Apr-19 07:00N 60°24' E 005°19'0 0.0
2018-Apr-19 06:30N 60°24' E 005°19'0 0.0
2018-Apr-19 06:00N 60°24' E 005°19'0 0.0
2018-Apr-19 05:30N 60°24' E 005°19'0 0.0
2018-Apr-19 05:00N 60°24' E 005°19'0 0.0
2018-Apr-19 04:30N 60°24' E 005°19'0 0.0
2018-Apr-19 04:00N 60°24' E 005°19'0 0.0
2018-Apr-19 03:30N 60°24' E 005°19'0 0.0
2018-Apr-19 03:00N 60°24' E 005°19'0 0.0
2018-Apr-19 02:30N 60°24' E 005°19'0 0.0
2018-Apr-19 02:00N 60°24' E 005°19'0 0.0
2018-Apr-19 01:30N 60°24' E 005°19'0 0.0
2018-Apr-19 01:00N 60°24' E 005°19'0 0.0
2018-Apr-19 00:30N 60°24' E 005°19'0 0.0
2018-Apr-19 00:00N 60°24' E 005°19'0 0.0
2018-Apr-18 23:29N 60°24' E 005°19'0 0.0
2018-Apr-18 23:00N 60°24' E 005°19'0 0.0
2018-Apr-18 22:30N 60°24' E 005°19'0 0.0
2018-Apr-18 22:00N 60°24' E 005°19'0 0.0
2018-Apr-18 21:30N 60°24' E 005°19'0 0.0
2018-Apr-18 21:00N 60°24' E 005°19'0 0.0
2018-Apr-18 20:30N 60°24' E 005°19'0 0.0
2018-Apr-18 20:00N 60°24' E 005°19'0 0.0
2018-Apr-18 19:30N 60°24' E 005°19'0 0.0
2018-Apr-18 19:00N 60°24' E 005°19'0 0.0
2018-Apr-18 18:30N 60°24' E 005°19'0 0.0
2018-Apr-18 18:00N 60°24' E 005°19'0 0.0
2018-Apr-18 17:30N 60°24' E 005°19'0 0.0
2018-Apr-18 17:00N 60°24' E 005°19'0 0.0
2018-Apr-18 16:29N 60°24' E 005°19'0 0.0
2018-Apr-18 16:00N 60°24' E 005°19'0 0.0
2018-Apr-18 15:30N 60°24' E 005°19'0 0.0
2018-Apr-18 15:00N 60°24' E 005°19'0 0.0
2018-Apr-18 14:30N 60°24' E 005°19'0 0.0
2018-Apr-18 14:00N 60°24' E 005°19'0 0.0
2018-Apr-18 13:30N 60°24' E 005°19'0 0.0
2018-Apr-18 13:00N 60°24' E 005°19'0 0.0
2018-Apr-18 12:30N 60°24' E 005°19'0 0.0
2018-Apr-18 12:00N 60°24' E 005°19'0 0.0
2018-Apr-18 11:30N 60°24' E 005°19'0 0.0
2018-Apr-18 11:00N 60°24' E 005°19'0 0.0
2018-Apr-18 10:30N 60°24' E 005°19'0 0.0
2018-Apr-18 09:59N 60°24' E 005°19'0 0.0
2018-Apr-18 09:30N 60°24' E 005°19'0 0.0
2018-Apr-18 08:59N 60°24' E 005°19'0 0.0
2018-Apr-18 08:30N 60°24' E 005°19'0 0.0
2018-Apr-18 08:00N 60°24' E 005°19'0 0.0
2018-Apr-18 07:29N 60°24' E 005°19'0 0.0
2018-Apr-18 07:00N 60°24' E 005°19'0 0.0
2018-Apr-18 06:30N 60°24' E 005°19'0 0.0
2018-Apr-18 06:00N 60°24' E 005°19'0 0.0
2018-Apr-18 05:30N 60°24' E 005°19'0 0.0
2018-Apr-18 05:00N 60°24' E 005°19'0 0.0
2018-Apr-18 04:30N 60°24' E 005°19'0 0.0
2018-Apr-18 04:00N 60°24' E 005°19'0 0.0
2018-Apr-18 03:29N 60°24' E 005°19'0 0.0
2018-Apr-18 02:59N 60°24' E 005°19'0 0.0
2018-Apr-18 02:30N 60°24' E 005°19'0 0.0
2018-Apr-18 02:00N 60°24' E 005°19'0 0.0
2018-Apr-18 01:30N 60°24' E 005°19'0 0.0
2018-Apr-18 01:00N 60°24' E 005°19'0 0.0
2018-Apr-18 00:30N 60°24' E 005°19'0 0.0
2018-Apr-18 00:00N 60°24' E 005°19'0 0.0
2018-Apr-17 23:30N 60°24' E 005°19'0 0.0
2018-Apr-17 23:00N 60°24' E 005°19'0 0.0
2018-Apr-17 22:30N 60°24' E 005°19'0 0.0
2018-Apr-17 22:00N 60°24' E 005°19'0 0.0
2018-Apr-17 21:29N 60°24' E 005°19'0 0.0
2018-Apr-17 21:00N 60°24' E 005°19'0 0.0
2018-Apr-17 20:30N 60°24' E 005°19'0 0.0
2018-Apr-17 20:00N 60°24' E 005°19'0 0.0
2018-Apr-17 19:30N 60°24' E 005°19'0 0.0
2018-Apr-17 19:00N 60°24' E 005°19'0 0.0
2018-Apr-17 18:30N 60°24' E 005°19'0 0.0
2018-Apr-17 18:00N 60°24' E 005°19'0 0.0
2018-Apr-17 17:30N 60°24' E 005°19'0 0.0
2018-Apr-17 17:00N 60°24' E 005°19'0 0.0
2018-Apr-17 16:30N 60°24' E 005°19'0 0.0
2018-Apr-17 16:00N 60°24' E 005°19'0 0.0
2018-Apr-17 15:30N 60°24' E 005°19'0 0.0
2018-Apr-17 15:00N 60°24' E 005°19'0 0.0
2018-Apr-17 14:29N 60°24' E 005°19'0 0.0
2018-Apr-17 14:00N 60°24' E 005°19'0 0.0
2018-Apr-17 13:30N 60°24' E 005°19'0 0.0
2018-Apr-17 12:59N 60°24' E 005°19'0 0.0
2018-Apr-17 12:30N 60°24' E 005°19'0 0.0
2018-Apr-17 12:00N 60°24' E 005°19'0 0.0
2018-Apr-17 11:30N 60°24' E 005°19'0 0.0
2018-Apr-17 11:00N 60°24' E 005°19'0 0.0
2018-Apr-17 10:29N 60°24' E 005°19'0 0.0
2018-Apr-17 10:00N 60°24' E 005°19'0 0.0
2018-Apr-17 09:30N 60°24' E 005°19'0 0.0
2018-Apr-17 09:00N 60°24' E 005°19'0 0.0
2018-Apr-17 08:30N 60°24' E 005°19'0 0.0
2018-Apr-17 08:00N 60°24' E 005°19'0 0.7
2018-Apr-17 07:30N 60°24' E 005°19'2 3.9
2018-Apr-17 07:00N 60°24' E 005°15'2 5.1
2018-Apr-17 06:30N 60°23' E 005°10'3 5.2
2018-Apr-17 06:00N 60°25' E 005°05'3 6.1
2018-Apr-17 05:30N 60°27' E 005°01'2 4.5
2018-Apr-17 05:00N 60°29' E 004°59'2 4.9
2018-Apr-17 04:30N 60°31' E 004°57'2 4.7
2018-Apr-17 03:59N 60°33' E 004°55'2 3.8
2018-Apr-17 03:30N 60°35' E 004°54'2 3.4
2018-Apr-17 02:59N 60°37' E 004°53'2 4.5
2018-Apr-17 02:30N 60°39' E 004°52'2 4.6
2018-Apr-17 02:00N 60°41' E 004°50'2 4.6
2018-Apr-17 01:30N 60°43' E 004°48'2 4.9
2018-Apr-17 01:00N 60°45' E 004°46'3 5.3
2018-Apr-17 00:30N 60°48' E 004°44'2 4.4
2018-Apr-17 00:00N 60°50' E 004°42'2 4.2
2018-Apr-16 23:30N 60°51' E 004°39'2 4.5
2018-Apr-16 23:00N 60°52' E 004°35'2 4.8
2018-Apr-16 22:30N 60°51' E 004°30'2 4.0
2018-Apr-16 22:00N 60°51' E 004°26'2 4.3
2018-Apr-16 21:30N 60°51' E 004°21'2 4.6
2018-Apr-16 21:00N 60°50' E 004°17'  
2018-Apr-11 15:46N 60°08' E 004°30'2 5.9
2018-Apr-11 15:30N 60°08' E 004°33'3 5.9
2018-Apr-11 15:00N 60°08' E 004°39'3 6.1
2018-Apr-11 14:30N 60°09' E 004°46'3 6.6
2018-Apr-11 14:01N 60°09' E 004°52'4 7.0
2018-Apr-11 13:30N 60°09' E 004°59'4 7.1
2018-Apr-11 13:00N 60°10' E 005°06'3 6.2
2018-Apr-11 12:30N 60°12' E 005°11'3 5.4
2018-Apr-11 12:00N 60°14' E 005°09'3 6.2
2018-Apr-11 11:30N 60°17' E 005°08'3 6.2
2018-Apr-11 11:00N 60°20' E 005°10'3 6.4
2018-Apr-11 10:30N 60°24' E 005°12'3 6.4
2018-Apr-11 10:00N 60°24' E 005°18'1 1.1
2018-Apr-11 09:29N 60°24' E 005°19'0 0.0
2018-Apr-11 08:59N 60°24' E 005°19'0 0.0
2018-Apr-11 08:29N 60°24' E 005°19'0 0.0
2018-Apr-11 08:00N 60°24' E 005°19'0 0.0
2018-Apr-11 07:30N 60°24' E 005°19'0 0.0
2018-Apr-11 07:00N 60°24' E 005°19'0 0.0
2018-Apr-11 06:28N 60°24' E 005°19'0 0.0
2018-Apr-11 05:58N 60°24' E 005°19'0 0.0
2018-Apr-11 05:28N 60°24' E 005°19'0 0.0
2018-Apr-11 04:59N 60°24' E 005°19'0 0.0
2018-Apr-11 04:29N 60°24' E 005°19'0 0.0
2018-Apr-11 03:59N 60°24' E 005°19'0 0.0
2018-Apr-11 03:30N 60°24' E 005°19'0 0.0
2018-Apr-11 03:00N 60°24' E 005°19'0 0.0
2018-Apr-11 02:30N 60°24' E 005°19'0 0.0
2018-Apr-11 01:58N 60°24' E 005°19'0 0.0
2018-Apr-11 01:28N 60°24' E 005°19'0 0.0
2018-Apr-11 00:58N 60°24' E 005°19'0 0.0
2018-Apr-11 00:29N 60°24' E 005°19'0 0.0
2018-Apr-10 23:59N 60°24' E 005°19'0 0.0
2018-Apr-10 23:29N 60°24' E 005°19'0 0.0
2018-Apr-10 23:00N 60°24' E 005°19'0 0.0
2018-Apr-10 22:30N 60°24' E 005°19'0 0.0
2018-Apr-10 22:00N 60°24' E 005°19'0 0.0
2018-Apr-10 21:28N 60°24' E 005°19'0 0.0
2018-Apr-10 21:00N 60°24' E 005°19'1 1.2
2018-Apr-10 20:30N 60°24' E 005°18'0 0.5
2018-Apr-10 20:00N 60°23' E 005°18'0 0.0
2018-Apr-10 19:30N 60°23' E 005°18'0 0.0
2018-Apr-10 19:00N 60°23' E 005°18'0 0.0
2018-Apr-10 18:30N 60°23' E 005°18'1 1.0
2018-Apr-10 18:00N 60°24' E 005°18'3 6.1
2018-Apr-10 17:30N 60°27' E 005°15'3 6.8
2018-Apr-10 17:00N 60°30' E 005°14'4 7.0
2018-Apr-10 16:30N 60°27' E 005°16'1 1.7
2018-Apr-10 16:00N 60°27' E 005°15'2 4.7
2018-Apr-10 15:30N 60°30' E 005°15'4 7.4
2018-Apr-10 15:00N 60°26' E 005°17'1 2.7
2018-Apr-10 14:30N 60°27' E 005°15'1 1.5
2018-Apr-10 14:00N 60°27' E 005°16'2 3.4
2018-Apr-10 13:30N 60°25' E 005°16'1 2.3
2018-Apr-10 13:00N 60°24' E 005°18'1 1.6
2018-Apr-10 12:30N 60°25' E 005°18'0 0.9
2018-Apr-10 12:00N 60°25' E 005°17'0 0.4
2018-Apr-10 11:30N 60°25' E 005°17'0 0.3
2018-Apr-10 11:00N 60°25' E 005°17'1 2.9
2018-Apr-10 10:30N 60°26' E 005°15'1 1.5
2018-Apr-10 09:59N 60°27' E 005°15'2 4.6
2018-Apr-10 09:30N 60°29' E 005°14'1 1.1
2018-Apr-10 09:01N 60°29' E 005°14'3 5.3
2018-Apr-10 08:30N 60°27' E 005°16'1 1.2
2018-Apr-10 07:59N 60°26' E 005°16'2 3.5
2018-Apr-10 07:30N 60°25' E 005°18'0 0.8
2018-Apr-10 07:00N 60°24' E 005°18'0 0.7
2018-Apr-10 06:30N 60°24' E 005°17'1 1.3
2018-Apr-10 05:58N 60°25' E 005°18'0 0.6
2018-Apr-10 05:30N 60°24' E 005°18'0 0.3
2018-Apr-10 05:00N 60°25' E 005°18'1 1.7
2018-Apr-10 04:30N 60°24' E 005°16'3 5.3
2018-Apr-10 04:00N 60°27' E 005°15'0 0.9
2018-Apr-10 03:30N 60°27' E 005°16'2 4.2
2018-Apr-10 03:00N 60°25' E 005°17'0 0.1
2018-Apr-10 02:30N 60°25' E 005°17'0 0.5
2018-Apr-10 02:00N 60°25' E 005°17'0 0.6
2018-Apr-10 01:30N 60°25' E 005°17'0 0.9
2018-Apr-10 01:00N 60°25' E 005°16'1 2.5
2018-Apr-10 00:30N 60°26' E 005°16'2 4.2
2018-Apr-10 00:01N 60°28' E 005°15'1 1.2
2018-Apr-09 23:29N 60°27' E 005°15'1 2.1
2018-Apr-09 23:00N 60°27' E 005°16'2 3.3
2018-Apr-09 22:30N 60°25' E 005°17'1 1.5
2018-Apr-09 21:59N 60°25' E 005°16'2 3.5
2018-Apr-09 21:30N 60°27' E 005°15'3 5.1
2018-Apr-09 21:00N 60°29' E 005°15'5 9.3
2018-Apr-09 20:28N 60°24' E 005°18'1 2.3
2018-Apr-09 20:00N 60°23' E 005°18'0 0.0
2018-Apr-09 19:30N 60°23' E 005°18'0 0.0
2018-Apr-09 19:00N 60°23' E 005°18'0 0.0
2018-Apr-09 18:28N 60°23' E 005°18'0 0.0
2018-Apr-09 17:58N 60°23' E 005°18'0 0.0
2018-Apr-09 17:29N 60°23' E 005°18'0 0.0
2018-Apr-09 16:59N 60°23' E 005°18'0 0.0
2018-Apr-09 16:29N 60°23' E 005°18'0 0.0
2018-Apr-09 16:00N 60°23' E 005°18'0 0.0
2018-Apr-09 15:30N 60°23' E 005°18'0 0.0
2018-Apr-09 15:00N 60°23' E 005°18'0 0.0
2018-Apr-09 14:28N 60°23' E 005°18'  
Track history (hours):
 
Tides and Currents Weather Stations Pressure Air Temp Water Temp Dewpoint Dewpoint Depression Visibility Wind Speed Wind Dir Waves Ship Positions

Statsraad Lehmkuhl (Norway)

Ship's website: http://www.lehmkuhl.no/eng/index.cfm

Last reported at 2018-Apr-19 14:23 UTC. Time now 2018-Apr-23 00:19 UTC.
Position N 60°07' E 004°31'.

Length 85 m; draft 5.2 m.

Type: Sailing vessel. MMSI: 258113000.

Date/timePositionNaut miles runAvg speedWind from/ knotsBaromVisibWave heightAir tempDewpointWater temp
2018-Apr-19 14:23N 60°07' E 004°31'2 4.2
2018-Apr-19 13:59N 60°07' E 004°34'2 3.9
2018-Apr-19 13:29N 60°07' E 004°38'2 4.6
2018-Apr-19 13:00N 60°08' E 004°42'4 7.9
2018-Apr-19 12:30N 60°09' E 004°50'4 7.5
2018-Apr-19 12:00N 60°09' E 004°58'4 8.2
2018-Apr-19 11:30N 60°10' E 005°06'4 7.5
2018-Apr-19 11:00N 60°13' E 005°10'3 5.6
2018-Apr-19 10:30N 60°15' E 005°09'4 7.2
2018-Apr-19 10:00N 60°19' E 005°09'3 6.6
2018-Apr-19 09:30N 60°22' E 005°10'4 7.5
2018-Apr-19 09:00N 60°24' E 005°16'2 3.4
2018-Apr-19 08:30N 60°24' E 005°19'0 0.0
2018-Apr-19 08:00N 60°24' E 005°19'0 0.0
2018-Apr-19 07:30N 60°24' E 005°19'0 0.0
2018-Apr-19 07:00N 60°24' E 005°19'0 0.0
2018-Apr-19 06:30N 60°24' E 005°19'0 0.0
2018-Apr-19 06:00N 60°24' E 005°19'0 0.0
2018-Apr-19 05:30N 60°24' E 005°19'0 0.0
2018-Apr-19 05:00N 60°24' E 005°19'0 0.0
2018-Apr-19 04:30N 60°24' E 005°19'0 0.0
2018-Apr-19 04:00N 60°24' E 005°19'0 0.0
2018-Apr-19 03:30N 60°24' E 005°19'0 0.0
2018-Apr-19 03:00N 60°24' E 005°19'0 0.0
2018-Apr-19 02:30N 60°24' E 005°19'0 0.0
2018-Apr-19 02:00N 60°24' E 005°19'0 0.0
2018-Apr-19 01:30N 60°24' E 005°19'0 0.0
2018-Apr-19 01:00N 60°24' E 005°19'0 0.0
2018-Apr-19 00:30N 60°24' E 005°19'0 0.0
2018-Apr-19 00:00N 60°24' E 005°19'0 0.0
2018-Apr-18 23:29N 60°24' E 005°19'0 0.0
2018-Apr-18 23:00N 60°24' E 005°19'0 0.0
2018-Apr-18 22:30N 60°24' E 005°19'0 0.0
2018-Apr-18 22:00N 60°24' E 005°19'0 0.0
2018-Apr-18 21:30N 60°24' E 005°19'0 0.0
2018-Apr-18 21:00N 60°24' E 005°19'0 0.0
2018-Apr-18 20:30N 60°24' E 005°19'0 0.0
2018-Apr-18 20:00N 60°24' E 005°19'0 0.0
2018-Apr-18 19:30N 60°24' E 005°19'0 0.0
2018-Apr-18 19:00N 60°24' E 005°19'0 0.0
2018-Apr-18 18:30N 60°24' E 005°19'0 0.0
2018-Apr-18 18:00N 60°24' E 005°19'0 0.0
2018-Apr-18 17:30N 60°24' E 005°19'0 0.0
2018-Apr-18 17:00N 60°24' E 005°19'0 0.0
2018-Apr-18 16:29N 60°24' E 005°19'0 0.0
2018-Apr-18 16:00N 60°24' E 005°19'0 0.0
2018-Apr-18 15:30N 60°24' E 005°19'0 0.0
2018-Apr-18 15:00N 60°24' E 005°19'0 0.0
2018-Apr-18 14:30N 60°24' E 005°19'0 0.0
2018-Apr-18 14:00N 60°24' E 005°19'0 0.0
2018-Apr-18 13:30N 60°24' E 005°19'0 0.0
2018-Apr-18 13:00N 60°24' E 005°19'0 0.0
2018-Apr-18 12:30N 60°24' E 005°19'0 0.0
2018-Apr-18 12:00N 60°24' E 005°19'0 0.0
2018-Apr-18 11:30N 60°24' E 005°19'0 0.0
2018-Apr-18 11:00N 60°24' E 005°19'0 0.0
2018-Apr-18 10:30N 60°24' E 005°19'0 0.0
2018-Apr-18 09:59N 60°24' E 005°19'0 0.0
2018-Apr-18 09:30N 60°24' E 005°19'0 0.0
2018-Apr-18 08:59N 60°24' E 005°19'0 0.0
2018-Apr-18 08:30N 60°24' E 005°19'0 0.0
2018-Apr-18 08:00N 60°24' E 005°19'0 0.0
2018-Apr-18 07:29N 60°24' E 005°19'0 0.0
2018-Apr-18 07:00N 60°24' E 005°19'0 0.0
2018-Apr-18 06:30N 60°24' E 005°19'0 0.0
2018-Apr-18 06:00N 60°24' E 005°19'0 0.0
2018-Apr-18 05:30N 60°24' E 005°19'0 0.0
2018-Apr-18 05:00N 60°24' E 005°19'0 0.0
2018-Apr-18 04:30N 60°24' E 005°19'0 0.0
2018-Apr-18 04:00N 60°24' E 005°19'0 0.0
2018-Apr-18 03:29N 60°24' E 005°19'0 0.0
2018-Apr-18 02:59N 60°24' E 005°19'0 0.0
2018-Apr-18 02:30N 60°24' E 005°19'0 0.0
2018-Apr-18 02:00N 60°24' E 005°19'0 0.0
2018-Apr-18 01:30N 60°24' E 005°19'0 0.0
2018-Apr-18 01:00N 60°24' E 005°19'0 0.0
2018-Apr-18 00:30N 60°24' E 005°19'0 0.0
2018-Apr-18 00:00N 60°24' E 005°19'0 0.0
2018-Apr-17 23:30N 60°24' E 005°19'0 0.0
2018-Apr-17 23:00N 60°24' E 005°19'0 0.0
2018-Apr-17 22:30N 60°24' E 005°19'0 0.0
2018-Apr-17 22:00N 60°24' E 005°19'0 0.0
2018-Apr-17 21:29N 60°24' E 005°19'0 0.0
2018-Apr-17 21:00N 60°24' E 005°19'0 0.0
2018-Apr-17 20:30N 60°24' E 005°19'0 0.0
2018-Apr-17 20:00N 60°24' E 005°19'0 0.0
2018-Apr-17 19:30N 60°24' E 005°19'0 0.0
2018-Apr-17 19:00N 60°24' E 005°19'0 0.0
2018-Apr-17 18:30N 60°24' E 005°19'0 0.0
2018-Apr-17 18:00N 60°24' E 005°19'0 0.0
2018-Apr-17 17:30N 60°24' E 005°19'0 0.0
2018-Apr-17 17:00N 60°24' E 005°19'0 0.0
2018-Apr-17 16:30N 60°24' E 005°19'0 0.0
2018-Apr-17 16:00N 60°24' E 005°19'0 0.0
2018-Apr-17 15:30N 60°24' E 005°19'0 0.0
2018-Apr-17 15:00N 60°24' E 005°19'0 0.0
2018-Apr-17 14:29N 60°24' E 005°19'0 0.0
2018-Apr-17 14:00N 60°24' E 005°19'0 0.0
2018-Apr-17 13:30N 60°24' E 005°19'0 0.0
2018-Apr-17 12:59N 60°24' E 005°19'0 0.0
2018-Apr-17 12:30N 60°24' E 005°19'0 0.0
2018-Apr-17 12:00N 60°24' E 005°19'0 0.0
2018-Apr-17 11:30N 60°24' E 005°19'0 0.0
2018-Apr-17 11:00N 60°24' E 005°19'0 0.0
2018-Apr-17 10:29N 60°24' E 005°19'0 0.0
2018-Apr-17 10:00N 60°24' E 005°19'0 0.0
2018-Apr-17 09:30N 60°24' E 005°19'0 0.0
2018-Apr-17 09:00N 60°24' E 005°19'0 0.0
2018-Apr-17 08:30N 60°24' E 005°19'0 0.0
2018-Apr-17 08:00N 60°24' E 005°19'0 0.7
2018-Apr-17 07:30N 60°24' E 005°19'2 3.9
2018-Apr-17 07:00N 60°24' E 005°15'2 5.1
2018-Apr-17 06:30N 60°23' E 005°10'3 5.2
2018-Apr-17 06:00N 60°25' E 005°05'3 6.1
2018-Apr-17 05:30N 60°27' E 005°01'2 4.5
2018-Apr-17 05:00N 60°29' E 004°59'2 4.9
2018-Apr-17 04:30N 60°31' E 004°57'2 4.7
2018-Apr-17 03:59N 60°33' E 004°55'2 3.8
2018-Apr-17 03:30N 60°35' E 004°54'2 3.4
2018-Apr-17 02:59N 60°37' E 004°53'2 4.5
2018-Apr-17 02:30N 60°39' E 004°52'2 4.6
2018-Apr-17 02:00N 60°41' E 004°50'2 4.6
2018-Apr-17 01:30N 60°43' E 004°48'2 4.9
2018-Apr-17 01:00N 60°45' E 004°46'3 5.3
2018-Apr-17 00:30N 60°48' E 004°44'2 4.4
2018-Apr-17 00:00N 60°50' E 004°42'2 4.2
2018-Apr-16 23:30N 60°51' E 004°39'2 4.5
2018-Apr-16 23:00N 60°52' E 004°35'2 4.8
2018-Apr-16 22:30N 60°51' E 004°30'2 4.0
2018-Apr-16 22:00N 60°51' E 004°26'2 4.3
2018-Apr-16 21:30N 60°51' E 004°21'2 4.6
2018-Apr-16 21:00N 60°50' E 004°17'  
2018-Apr-11 15:46N 60°08' E 004°30'2 5.9
2018-Apr-11 15:30N 60°08' E 004°33'3 5.9
2018-Apr-11 15:00N 60°08' E 004°39'3 6.1
2018-Apr-11 14:30N 60°09' E 004°46'3 6.6
2018-Apr-11 14:01N 60°09' E 004°52'4 7.0
2018-Apr-11 13:30N 60°09' E 004°59'4 7.1
2018-Apr-11 13:00N 60°10' E 005°06'3 6.2
2018-Apr-11 12:30N 60°12' E 005°11'3 5.4
2018-Apr-11 12:00N 60°14' E 005°09'3 6.2
2018-Apr-11 11:30N 60°17' E 005°08'3 6.2
2018-Apr-11 11:00N 60°20' E 005°10'3 6.4
2018-Apr-11 10:30N 60°24' E 005°12'3 6.4
2018-Apr-11 10:00N 60°24' E 005°18'1 1.1
2018-Apr-11 09:29N 60°24' E 005°19'0 0.0
2018-Apr-11 08:59N 60°24' E 005°19'0 0.0
2018-Apr-11 08:29N 60°24' E 005°19'0 0.0
2018-Apr-11 08:00N 60°24' E 005°19'0 0.0
2018-Apr-11 07:30N 60°24' E 005°19'0 0.0
2018-Apr-11 07:00N 60°24' E 005°19'0 0.0
2018-Apr-11 06:28N 60°24' E 005°19'0 0.0
2018-Apr-11 05:58N 60°24' E 005°19'0 0.0
2018-Apr-11 05:28N 60°24' E 005°19'0 0.0
2018-Apr-11 04:59N 60°24' E 005°19'0 0.0
2018-Apr-11 04:29N 60°24' E 005°19'0 0.0
2018-Apr-11 03:59N 60°24' E 005°19'0 0.0
2018-Apr-11 03:30N 60°24' E 005°19'0 0.0
2018-Apr-11 03:00N 60°24' E 005°19'0 0.0
2018-Apr-11 02:30N 60°24' E 005°19'0 0.0
2018-Apr-11 01:58N 60°24' E 005°19'0 0.0
2018-Apr-11 01:28N 60°24' E 005°19'0 0.0
2018-Apr-11 00:58N 60°24' E 005°19'0 0.0
2018-Apr-11 00:29N 60°24' E 005°19'0 0.0
2018-Apr-10 23:59N 60°24' E 005°19'0 0.0
2018-Apr-10 23:29N 60°24' E 005°19'0 0.0
2018-Apr-10 23:00N 60°24' E 005°19'0 0.0
2018-Apr-10 22:30N 60°24' E 005°19'0 0.0
2018-Apr-10 22:00N 60°24' E 005°19'0 0.0
2018-Apr-10 21:28N 60°24' E 005°19'0 0.0
2018-Apr-10 21:00N 60°24' E 005°19'1 1.2
2018-Apr-10 20:30N 60°24' E 005°18'0 0.5
2018-Apr-10 20:00N 60°23' E 005°18'0 0.0
2018-Apr-10 19:30N 60°23' E 005°18'0 0.0
2018-Apr-10 19:00N 60°23' E 005°18'0 0.0
2018-Apr-10 18:30N 60°23' E 005°18'1 1.0
2018-Apr-10 18:00N 60°24' E 005°18'3 6.1
2018-Apr-10 17:30N 60°27' E 005°15'3 6.8
2018-Apr-10 17:00N 60°30' E 005°14'4 7.0
2018-Apr-10 16:30N 60°27' E 005°16'1 1.7
2018-Apr-10 16:00N 60°27' E 005°15'2 4.7
2018-Apr-10 15:30N 60°30' E 005°15'4 7.4
2018-Apr-10 15:00N 60°26' E 005°17'1 2.7
2018-Apr-10 14:30N 60°27' E 005°15'1 1.5
2018-Apr-10 14:00N 60°27' E 005°16'2 3.4
2018-Apr-10 13:30N 60°25' E 005°16'1 2.3
2018-Apr-10 13:00N 60°24' E 005°18'1 1.6
2018-Apr-10 12:30N 60°25' E 005°18'0 0.9
2018-Apr-10 12:00N 60°25' E 005°17'0 0.4
2018-Apr-10 11:30N 60°25' E 005°17'0 0.3
2018-Apr-10 11:00N 60°25' E 005°17'1 2.9
2018-Apr-10 10:30N 60°26' E 005°15'1 1.5
2018-Apr-10 09:59N 60°27' E 005°15'2 4.6
2018-Apr-10 09:30N 60°29' E 005°14'1 1.1
2018-Apr-10 09:01N 60°29' E 005°14'3 5.3
2018-Apr-10 08:30N 60°27' E 005°16'1 1.2
2018-Apr-10 07:59N 60°26' E 005°16'2 3.5
2018-Apr-10 07:30N 60°25' E 005°18'0 0.8
2018-Apr-10 07:00N 60°24' E 005°18'0 0.7
2018-Apr-10 06:30N 60°24' E 005°17'1 1.3
2018-Apr-10 05:58N 60°25' E 005°18'0 0.6
2018-Apr-10 05:30N 60°24' E 005°18'0 0.3
2018-Apr-10 05:00N 60°25' E 005°18'1 1.7
2018-Apr-10 04:30N 60°24' E 005°16'3 5.3
2018-Apr-10 04:00N 60°27' E 005°15'0 0.9
2018-Apr-10 03:30N 60°27' E 005°16'2 4.2
2018-Apr-10 03:00N 60°25' E 005°17'0 0.1
2018-Apr-10 02:30N 60°25' E 005°17'0 0.5
2018-Apr-10 02:00N 60°25' E 005°17'0 0.6
2018-Apr-10 01:30N 60°25' E 005°17'0 0.9
2018-Apr-10 01:00N 60°25' E 005°16'1 2.5
2018-Apr-10 00:30N 60°26' E 005°16'2 4.2
2018-Apr-10 00:01N 60°28' E 005°15'1 1.2
2018-Apr-09 23:29N 60°27' E 005°15'1 2.1
2018-Apr-09 23:00N 60°27' E 005°16'2 3.3
2018-Apr-09 22:30N 60°25' E 005°17'1 1.5
2018-Apr-09 21:59N 60°25' E 005°16'2 3.5
2018-Apr-09 21:30N 60°27' E 005°15'3 5.1
2018-Apr-09 21:00N 60°29' E 005°15'5 9.3
2018-Apr-09 20:28N 60°24' E 005°18'1 2.3
2018-Apr-09 20:00N 60°23' E 005°18'0 0.0
2018-Apr-09 19:30N 60°23' E 005°18'0 0.0
2018-Apr-09 19:00N 60°23' E 005°18'0 0.0
2018-Apr-09 18:28N 60°23' E 005°18'0 0.0
2018-Apr-09 17:58N 60°23' E 005°18'0 0.0
2018-Apr-09 17:29N 60°23' E 005°18'0 0.0
2018-Apr-09 16:59N 60°23' E 005°18'0 0.0
2018-Apr-09 16:29N 60°23' E 005°18'0 0.0
2018-Apr-09 16:00N 60°23' E 005°18'0 0.0
2018-Apr-09 15:30N 60°23' E 005°18'0 0.0
2018-Apr-09 15:00N 60°23' E 005°18'0 0.0
2018-Apr-09 14:28N 60°23' E 005°18'  

Dump ship's entire track history